createdAt,value
2022-11-16T05:00:20.677Z,8.19
2022-11-16T05:03:24.395Z,8.60
2022-11-16T05:06:26.524Z,8.91
2022-11-16T05:09:29.137Z,8.69
2022-11-16T05:12:31.723Z,8.77
2022-11-16T05:15:34.620Z,8.82
2022-11-16T05:18:37.194Z,9.06
2022-11-16T05:21:40.117Z,8.92
2022-11-16T05:24:44.101Z,8.78
2022-11-16T05:27:46.475Z,8.89
2022-11-16T05:30:48.528Z,8.78
2022-11-16T05:33:52.154Z,8.76
2022-11-16T05:36:55.568Z,8.72
2022-11-16T05:39:58.004Z,8.72
2022-11-16T05:43:01.923Z,8.71
2022-11-16T05:46:05.511Z,8.85
2022-11-16T05:49:08.332Z,8.99
2022-11-16T05:52:11.122Z,8.90
2022-11-16T05:55:13.697Z,8.75
2022-11-16T05:58:16.398Z,8.80
2022-11-16T06:01:18.490Z,9.01
2022-11-16T06:04:24.235Z,9.01
2022-11-16T06:07:26.839Z,8.93
2022-11-16T06:10:29.408Z,8.86
2022-11-16T06:13:33.101Z,8.58
2022-11-16T06:16:35.817Z,8.55
2022-11-16T06:19:38.229Z,8.46
2022-11-16T06:22:40.639Z,8.55
2022-11-16T06:25:42.903Z,8.43
2022-11-16T06:28:45.645Z,8.32
2022-11-16T06:31:48.228Z,8.46
2022-11-16T06:34:51.233Z,8.82
2022-11-16T06:37:53.331Z,8.81
2022-11-16T06:40:57.809Z,8.83
2022-11-16T06:44:01.019Z,8.68
2022-11-16T06:47:04.844Z,8.54
2022-11-16T06:50:08.781Z,8.57
2022-11-16T06:53:11.214Z,8.75
2022-11-16T06:56:15.487Z,8.67
2022-11-16T06:59:17.981Z,8.67
2022-11-16T07:02:22.723Z,8.71
2022-11-16T07:05:25.105Z,8.68
2022-11-16T07:08:29.515Z,8.92
2022-11-16T07:11:31.984Z,8.99
2022-11-16T07:14:34.282Z,9.02
2022-11-16T07:17:38.184Z,8.99
2022-11-16T07:20:40.299Z,8.98
2022-11-16T07:23:43.681Z,8.92
2022-11-16T07:26:46.106Z,8.76
2022-11-16T07:29:57.516Z,8.93
2022-11-16T07:33:04.514Z,9.02
2022-11-16T07:36:13.294Z,9.09
2022-11-16T07:39:15.680Z,8.94
2022-11-16T07:42:18.777Z,8.86
2022-11-16T07:45:21.961Z,9.05
2022-11-16T07:48:24.847Z,9.29
2022-11-16T07:51:28.862Z,9.28
2022-11-16T07:54:33.333Z,9.30
2022-11-16T07:57:35.868Z,9.31
2022-11-16T08:00:38.643Z,9.37
2022-11-16T08:03:43.069Z,9.35
2022-11-16T08:06:46.819Z,9.38
2022-11-16T08:09:50.128Z,9.22
2022-11-16T08:12:52.589Z,9.37
2022-11-16T08:15:55.208Z,9.37
2022-11-16T08:18:57.588Z,9.26
2022-11-16T08:22:00.245Z,9.18
2022-11-16T08:25:04.085Z,9.17
2022-11-16T08:28:06.616Z,9.03
2022-11-16T08:31:12.938Z,9.04
2022-11-16T08:34:16.417Z,9.36
2022-11-16T08:37:18.900Z,9.45
2022-11-16T08:40:22.697Z,9.36
2022-11-16T08:43:24.995Z,9.55
2022-11-16T08:46:27.880Z,9.50
2022-11-16T08:49:30.713Z,9.40
2022-11-16T08:52:33.402Z,9.32
2022-11-16T08:55:36.036Z,9.30
2022-11-16T08:58:39.248Z,9.24
2022-11-16T09:01:41.498Z,9.24
2022-11-16T09:04:43.888Z,9.60
2022-11-16T09:07:46.064Z,9.50
2022-11-16T09:10:48.402Z,9.40
2022-11-16T09:13:53.186Z,9.62
2022-11-16T09:16:56.055Z,9.50
2022-11-16T09:19:58.377Z,9.53
2022-11-16T09:23:00.704Z,9.57
2022-11-16T09:26:05.383Z,9.49
2022-11-16T09:29:11.339Z,9.50
2022-11-16T09:32:13.377Z,9.66
2022-11-16T09:35:17.264Z,9.64
2022-11-16T09:38:26.998Z,9.64
2022-11-16T09:42:32.759Z,9.69
2022-11-16T09:45:54.233Z,9.79
2022-11-16T09:49:00.205Z,9.60
2022-11-16T09:52:07.038Z,9.49
2022-11-16T09:55:38.574Z,9.19
2022-11-16T09:59:04.013Z,9.10
2022-11-16T10:02:19.404Z,9.34
2022-11-16T10:05:24.122Z,9.64
2022-11-16T10:08:39.995Z,9.49
2022-11-16T10:12:13.428Z,9.54
2022-11-16T10:15:52.684Z,9.85
2022-11-16T10:19:10.030Z,9.67
2022-11-16T10:22:52.402Z,9.61
2022-11-16T10:26:20.452Z,9.60
2022-11-16T10:29:22.468Z,9.98
2022-11-16T10:32:33.193Z,9.82
2022-11-16T10:35:42.737Z,9.67
2022-11-16T10:38:45.347Z,9.83
2022-11-16T10:41:52.756Z,9.64
2022-11-16T10:45:17.782Z,9.66
2022-11-16T10:48:31.423Z,9.86
2022-11-16T10:51:33.806Z,10.00
2022-11-16T10:54:38.892Z,9.94
2022-11-16T10:57:58.747Z,9.79
2022-11-16T11:01:01.134Z,9.83
2022-11-16T11:04:22.117Z,10.08
2022-11-16T11:07:32.633Z,10.03
2022-11-16T11:10:38.705Z,10.12
2022-11-16T11:13:40.861Z,10.00
2022-11-16T11:16:43.165Z,9.87
2022-11-16T11:19:45.319Z,9.77
2022-11-16T11:23:04.545Z,9.86
2022-11-16T11:26:10.081Z,10.02
2022-11-16T11:29:34.988Z,9.96
2022-11-16T11:32:40.093Z,10.01
2022-11-16T11:35:42.772Z,9.86
2022-11-16T11:39:01.917Z,9.88
2022-11-16T11:42:13.309Z,9.76
2022-11-16T11:45:15.533Z,9.82
2022-11-16T11:48:21.009Z,9.84
2022-11-16T11:51:33.550Z,9.84
2022-11-16T11:54:45.854Z,9.90
2022-11-16T11:57:52.956Z,9.92
2022-11-16T12:01:26.219Z,9.95
2022-11-16T12:04:34.421Z,10.04
2022-11-16T12:07:51.506Z,9.88
2022-11-16T12:11:17.138Z,9.93
2022-11-16T12:14:40.853Z,9.70
2022-11-16T12:18:00.171Z,9.74
2022-11-16T12:21:05.646Z,9.92
2022-11-16T12:24:44.918Z,9.85
2022-11-16T12:28:08.702Z,9.90
2022-11-16T12:31:33.712Z,10.00
2022-11-16T12:34:55.575Z,10.06
2022-11-16T12:38:20.533Z,10.10
2022-11-16T12:41:42.160Z,10.02
2022-11-16T12:44:50.510Z,10.09
2022-11-16T12:48:30.084Z,9.91
2022-11-16T12:51:47.426Z,9.96
2022-11-16T12:55:26.484Z,10.03
2022-11-16T12:58:32.362Z,9.95
2022-11-16T13:02:18.978Z,10.00
2022-11-16T13:05:25.061Z,10.00
2022-11-16T13:08:39.496Z,10.07
2022-11-16T13:11:52.687Z,10.03
2022-11-16T13:14:57.231Z,9.89
2022-11-16T13:18:03.670Z,9.94
2022-11-16T13:21:11.085Z,9.90
2022-11-16T13:24:37.181Z,9.79
2022-11-16T13:27:48.035Z,9.88
2022-11-16T13:31:04.353Z,9.89
2022-11-16T13:34:14.676Z,9.91
2022-11-16T13:37:39.194Z,9.80
2022-11-16T13:40:41.598Z,9.88
2022-11-16T13:43:50.200Z,9.88
2022-11-16T13:46:56.644Z,9.88
2022-11-16T13:50:02.037Z,9.73
2022-11-16T13:56:49.508Z,9.97
2022-11-16T14:00:00.712Z,10.00
2022-11-16T14:03:12.057Z,9.87
2022-11-16T14:06:20.264Z,9.89
2022-11-16T14:09:45.411Z,9.83
2022-11-16T14:12:53.277Z,9.90
2022-11-16T14:16:20.431Z,9.85
2022-11-16T14:19:45.238Z,9.79
2022-11-16T14:23:09.258Z,9.99
2022-11-16T14:26:58.206Z,9.94
2022-11-16T14:30:23.166Z,10.00
2022-11-16T14:33:33.994Z,9.83
2022-11-16T14:36:38.726Z,9.78
2022-11-16T14:39:44.856Z,9.75
2022-11-16T14:43:15.996Z,9.84
2022-11-16T14:46:23.667Z,9.83
2022-11-16T14:49:27.909Z,9.81
2022-11-16T14:52:37.617Z,9.64
2022-11-16T14:55:45.881Z,9.72
2022-11-16T14:58:56.779Z,9.87
2022-11-16T15:02:04.625Z,9.82
2022-11-16T15:05:07.326Z,9.83
2022-11-16T15:08:28.989Z,9.81
2022-11-16T15:11:52.416Z,9.82
2022-11-16T15:14:57.950Z,9.85
2022-11-16T15:18:00.183Z,9.73
2022-11-16T15:21:02.276Z,9.85
2022-11-16T15:27:41.868Z,9.84
2022-11-16T15:30:50.812Z,9.84
2022-11-16T15:33:52.857Z,9.78
2022-11-16T15:36:55.150Z,9.83
2022-11-16T15:39:59.005Z,9.74
2022-11-16T15:43:04.678Z,9.87
2022-11-16T15:46:07.549Z,9.81
2022-11-16T15:49:26.553Z,9.78
2022-11-16T15:52:43.418Z,9.72
2022-11-16T15:55:49.971Z,9.61
2022-11-16T15:58:57.992Z,9.75
2022-11-16T16:02:00.567Z,9.77
2022-11-16T16:05:03.114Z,9.79
2022-11-16T16:08:06.300Z,9.74
2022-11-16T16:11:16.313Z,9.80
2022-11-16T16:14:36.503Z,9.79
2022-11-16T16:17:44.690Z,9.72
2022-11-16T16:20:48.899Z,9.74
2022-11-16T16:23:56.222Z,9.90
2022-11-16T16:26:58.308Z,9.90
2022-11-16T16:30:04.794Z,9.91
2022-11-16T16:33:06.848Z,9.83
2022-11-16T16:36:11.483Z,9.85
2022-11-16T16:39:13.540Z,9.84
